Time;durP1;ratioP1;P1;durP2;ratioP2;P2;SDS_P1;SDS_P2;PMS_P1;PMS_P2;Temp;Humidity;BMP_temperature;BMP_pressure;BME280_temperature;BME280_humidity;BME280_pressure;Samples;Min_cycle;Max_cycle;Signal;HPM_P1;HPM_P2
2022/12/30 00:01:30;;;;;;;4.15;1.20;;;;;;;;;;4995866;28;20057;-66
2022/12/30 00:03:55;;;;;;;1.92;1.00;;;;;;;;;;4996053;28;20502;-67
2022/12/30 00:06:23;;;;;;;3.60;1.30;;;;;;;;;;4997739;28;20487;-68
2022/12/30 00:08:51;;;;;;;3.20;1.50;;;;;;;;;;4995891;28;20132;-67
2022/12/30 00:11:21;;;;;;;3.15;1.50;;;;;;;;;;4994494;28;20072;-68
2022/12/30 00:34:06;;;;;;;1.88;1.17;;;;;;;;;;5010426;28;20494;-66
2022/12/30 00:36:32;;;;;;;2.72;1.17;;;;;;;;;;4981096;28;20026;-68
2022/12/30 00:38:58;;;;;;;3.00;1.25;;;;;;;;;;5006395;28;20026;-66
2022/12/30 00:44:07;;;;;;;1.48;0.80;;;;;;;;;;4997063;28;20068;-65
2022/12/30 00:46:34;;;;;;;3.72;1.30;;;;;;;;;;5009666;28;20018;-66
2022/12/30 00:57:13;;;;;;;3.67;1.10;;;;;;;;;;5002324;28;20048;-66
2022/12/30 00:59:39;;;;;;;3.08;1.30;;;;;;;;;;5000442;28;20030;-66
2022/12/30 01:02:04;;;;;;;2.70;1.05;;;;;;;;;;5009478;28;20440;-66
2022/12/30 01:04:29;;;;;;;2.28;1.10;;;;;;;;;;4996685;28;20021;-67
2022/12/30 01:06:56;;;;;;;3.55;1.25;;;;;;;;;;5006322;28;20094;-67
2022/12/30 01:09:21;;;;;;;2.50;1.00;;;;;;;;;;5003453;28;20060;-67
2022/12/30 01:12:07;;;;;;;2.10;1.02;;;;;;;;;;4998965;28;20030;-67
2022/12/30 01:14:32;;;;;;;3.63;1.20;;;;;;;;;;4981024;28;20112;-67
2022/12/30 01:16:57;;;;;;;10.60;1.50;;;;;;;;;;5005808;28;20114;-67
2022/12/30 01:19:23;;;;;;;3.83;1.10;;;;;;;;;;5003653;28;20469;-67
2022/12/30 01:21:48;;;;;;;4.20;1.30;;;;;;;;;;4998739;28;20041;-68
2022/12/30 01:24:14;;;;;;;2.25;1.20;;;;;;;;;;5009362;28;20490;-68
2022/12/30 01:26:39;;;;;;;4.35;1.10;;;;;;;;;;4997497;28;20225;-68
2022/12/30 01:29:05;;;;;;;2.50;1.20;;;;;;;;;;5012619;28;20336;-68
2022/12/30 01:31:31;;;;;;;5.50;1.58;;;;;;;;;;5012800;28;20041;-68
2022/12/30 01:33:56;;;;;;;3.65;1.10;;;;;;;;;;5007807;28;20023;-69
2022/12/30 01:36:21;;;;;;;2.60;1.00;;;;;;;;;;5001622;28;20026;-68
2022/12/30 01:38:47;;;;;;;3.95;1.30;;;;;;;;;;5000809;28;20027;-67
2022/12/30 01:41:12;;;;;;;3.33;1.10;;;;;;;;;;5007972;28;20034;-68
2022/12/30 01:43:45;;;;;;;4.15;1.48;;;;;;;;;;4993893;28;20201;-68
2022/12/30 01:46:17;;;;;;;2.95;1.10;;;;;;;;;;4993262;28;20022;-68
2022/12/30 01:48:43;;;;;;;3.78;1.27;;;;;;;;;;4975310;28;20336;-68
2022/12/30 01:51:15;;;;;;;2.63;1.00;;;;;;;;;;4977709;28;20119;-68
2022/12/30 01:53:44;;;;;;;2.65;1.60;;;;;;;;;;5004080;28;20501;-67
2022/12/30 01:56:26;;;;;;;4.35;1.23;;;;;;;;;;5007902;28;20096;-68
2022/12/30 01:59:00;;;;;;;3.15;1.38;;;;;;;;;;4997071;28;20046;-68
2022/12/30 02:01:26;;;;;;;4.45;1.15;;;;;;;;;;4998967;28;20398;-67
2022/12/30 02:04:00;;;;;;;2.85;1.20;;;;;;;;;;5016495;28;20026;-68
2022/12/30 02:06:33;;;;;;;4.00;1.05;;;;;;;;;;4984059;28;20418;-68
2022/12/30 02:08:59;;;;;;;2.72;1.10;;;;;;;;;;5008108;28;20065;-68
2022/12/30 02:11:25;;;;;;;3.63;1.42;;;;;;;;;;5008217;28;20065;-67
2022/12/30 02:13:50;;;;;;;3.10;1.10;;;;;;;;;;5001235;28;20029;-68
2022/12/30 02:16:38;;;;;;;4.18;1.30;;;;;;;;;;5013169;28;20030;-67
2022/12/30 02:19:57;;;;;;;4.00;1.30;;;;;;;;;;4996545;28;20022;-68
2022/12/30 02:22:37;;;;;;;6.05;1.50;;;;;;;;;;4991510;28;20044;-68
2022/12/30 02:25:21;;;;;;;;;;;;;;;;;;4975419;28;20031;-66
2022/12/30 02:28:17;;;;;;;4.63;1.08;;;;;;;;;;4975028;28;19914;-67
2022/12/30 02:31:29;;;;;;;4.25;1.40;;;;;;;;;;4994157;28;20104;-66
2022/12/30 02:34:48;;;;;;;3.95;1.20;;;;;;;;;;4981521;28;20117;-68
2022/12/30 02:38:00;;;;;;;4.50;1.23;;;;;;;;;;4920075;29;20040;-67
2022/12/30 02:46:14;;;;;;;;;;;;;;;;;;4915173;29;20051;-67
2022/12/30 02:48:44;;;;;;;6.22;1.90;;;;;;;;;;4898064;29;19923;-67
2022/12/30 02:53:54;;;;;;;6.05;2.53;;;;;;;;;;4904855;29;20043;-67
2022/12/30 02:56:19;;;;;;;5.05;2.20;;;;;;;;;;4905359;29;20041;-67
2022/12/30 03:03:56;;;;;;;8.75;1.60;;;;;;;;;;4897338;29;20064;-67
2022/12/30 03:04:37;;;;;;;5.07;1.50;;;;;;;;;;4897864;29;20048;-67
2022/12/30 03:07:21;;;;;;;4.40;1.58;;;;;;;;;;4909344;29;20119;-67
2022/12/30 03:11:12;;;;;;;4.35;1.50;;;;;;;;;;4955052;29;20031;-68
2022/12/30 03:12:51;;;;;;;6.03;1.25;;;;;;;;;;5006469;28;20110;-67
2022/12/30 03:15:21;;;;;;;2.80;1.38;;;;;;;;;;5015389;28;20025;-67
2022/12/30 03:17:48;;;;;;;2.33;1.25;;;;;;;;;;5004698;28;20106;-67
2022/12/30 03:20:17;;;;;;;4.25;1.20;;;;;;;;;;4995660;28;20146;-67
2022/12/30 03:28:17;;;;;;;3.00;1.10;;;;;;;;;;5002196;28;20439;-68
2022/12/30 03:30:48;;;;;;;4.13;1.38;;;;;;;;;;4995254;28;20037;-68
2022/12/30 03:33:14;;;;;;;3.55;1.20;;;;;;;;;;5009856;28;20026;-68
2022/12/30 03:35:47;;;;;;;9.43;1.42;;;;;;;;;;5014727;28;20030;-68
2022/12/30 03:38:14;;;;;;;2.38;1.10;;;;;;;;;;5004251;28;20081;-68
2022/12/30 03:40:42;;;;;;;4.00;1.10;;;;;;;;;;4995333;28;20030;-68
2022/12/30 03:43:09;;;;;;;3.42;1.17;;;;;;;;;;4995062;28;20519;-68
2022/12/30 03:45:34;;;;;;;3.15;1.10;;;;;;;;;;5013238;28;20128;-68
2022/12/30 03:48:00;;;;;;;5.72;1.08;;;;;;;;;;5014695;28;20141;-69
2022/12/30 03:50:25;;;;;;;2.63;1.17;;;;;;;;;;5007983;28;20019;-68
2022/12/30 03:52:50;;;;;;;8.15;1.58;;;;;;;;;;4997482;28;20031;-69
2022/12/30 03:55:16;;;;;;;4.10;1.42;;;;;;;;;;5008450;28;20499;-68
2022/12/30 03:57:42;;;;;;;6.30;1.50;;;;;;;;;;5004160;28;20395;-68
2022/12/30 04:00:10;;;;;;;3.85;1.33;;;;;;;;;;5001479;28;20149;-68
2022/12/30 04:02:38;;;;;;;4.43;1.80;;;;;;;;;;5011451;28;20025;-68
2022/12/30 04:05:04;;;;;;;5.88;1.75;;;;;;;;;;5014038;28;20026;-68
2022/12/30 04:07:30;;;;;;;6.53;1.67;;;;;;;;;;5011995;28;20101;-68
2022/12/30 04:09:55;;;;;;;4.85;1.67;;;;;;;;;;4994564;28;20031;-68
2022/12/30 04:12:20;;;;;;;7.47;1.88;;;;;;;;;;4993756;28;20026;-69
2022/12/30 04:14:46;;;;;;;5.07;1.83;;;;;;;;;;5003860;28;20041;-68
2022/12/30 04:17:11;;;;;;;5.75;1.77;;;;;;;;;;5014042;28;20117;-68
2022/12/30 04:19:37;;;;;;;4.63;1.60;;;;;;;;;;5013844;28;20022;-68
2022/12/30 04:22:02;;;;;;;5.25;1.75;;;;;;;;;;4997764;28;20038;-68
2022/12/30 04:24:28;;;;;;;5.40;1.67;;;;;;;;;;5002826;28;20064;-68
2022/12/30 04:26:53;;;;;;;9.02;2.08;;;;;;;;;;5001775;28;20113;-68
2022/12/30 04:29:18;;;;;;;7.35;2.20;;;;;;;;;;4999760;28;20034;-69
2022/12/30 04:31:44;;;;;;;6.03;1.40;;;;;;;;;;4996719;28;20030;-68
2022/12/30 04:34:12;;;;;;;3.42;1.50;;;;;;;;;;5013706;28;20026;-67
2022/12/30 04:36:37;;;;;;;4.63;1.80;;;;;;;;;;5013737;28;20058;-68
2022/12/30 04:39:03;;;;;;;7.43;2.10;;;;;;;;;;5005506;28;20054;-68
2022/12/30 04:41:29;;;;;;;8.50;1.83;;;;;;;;;;4993529;28;20059;-67
2022/12/30 04:43:54;;;;;;;6.75;1.70;;;;;;;;;;4993928;28;20038;-66
2022/12/30 04:46:20;;;;;;;6.95;2.05;;;;;;;;;;5009995;28;20075;-67
2022/12/30 04:48:45;;;;;;;5.05;1.67;;;;;;;;;;5013268;28;20497;-66
2022/12/30 04:51:11;;;;;;;6.82;2.00;;;;;;;;;;5007385;28;20023;-67
2022/12/30 04:53:36;;;;;;;8.55;1.90;;;;;;;;;;4997018;28;20404;-67
2022/12/30 04:56:01;;;;;;;7.47;2.00;;;;;;;;;;5006516;28;20022;-67
2022/12/30 04:58:27;;;;;;;6.32;1.83;;;;;;;;;;5003485;28;20053;-67
2022/12/30 05:00:53;;;;;;;4.70;1.70;;;;;;;;;;4999742;28;20033;-67
2022/12/30 05:03:18;;;;;;;8.27;1.98;;;;;;;;;;5009326;28;20557;-67
2022/12/30 05:05:44;;;;;;;10.25;1.77;;;;;;;;;;5013191;28;20033;-68
2022/12/30 05:08:09;;;;;;;7.68;1.65;;;;;;;;;;5012483;28;20044;-67
2022/12/30 05:10:37;;;;;;;2.90;1.50;;;;;;;;;;4993545;28;20064;-67
2022/12/30 05:13:03;;;;;;;7.55;2.00;;;;;;;;;;4993592;28;20026;-67
2022/12/30 05:15:28;;;;;;;5.95;1.42;;;;;;;;;;5006731;28;20022;-67
2022/12/30 05:17:54;;;;;;;7.05;1.83;;;;;;;;;;5012941;28;20030;-67
2022/12/30 05:20:19;;;;;;;6.03;1.80;;;;;;;;;;5011393;28;20121;-67
2022/12/30 05:22:45;;;;;;;3.63;1.40;;;;;;;;;;4993334;28;20544;-67
2022/12/30 05:27:55;;;;;;;8.27;2.03;;;;;;;;;;5001983;28;20053;-66
2022/12/30 05:30:20;;;;;;;5.88;1.80;;;;;;;;;;5001049;28;20022;-68
2022/12/30 05:32:46;;;;;;;6.50;1.70;;;;;;;;;;5001270;28;20046;-67
2022/12/30 05:35:11;;;;;;;3.42;1.70;;;;;;;;;;4993352;28;20026;-67
2022/12/30 05:37:37;;;;;;;7.47;2.45;;;;;;;;;;4993341;28;20033;-67
2022/12/30 05:40:03;;;;;;;9.35;3.72;;;;;;;;;;5012372;28;20383;-67
2022/12/30 05:42:28;;;;;;;10.35;1.90;;;;;;;;;;5006473;28;20049;-67
2022/12/30 05:44:54;;;;;;;5.82;1.77;;;;;;;;;;4993086;28;20022;-67
2022/12/30 05:47:19;;;;;;;4.28;1.80;;;;;;;;;;4992993;28;20023;-68
2022/12/30 05:49:44;;;;;;;7.35;1.67;;;;;;;;;;5010866;28;20022;-68
2022/12/30 05:52:10;;;;;;;4.22;1.60;;;;;;;;;;5009592;28;20427;-67
2022/12/30 05:54:35;;;;;;;8.13;2.25;;;;;;;;;;4999639;28;20014;-67
2022/12/30 05:57:01;;;;;;;5.18;1.95;;;;;;;;;;5002607;28;20053;-68
2022/12/30 05:59:26;;;;;;;8.38;2.25;;;;;;;;;;5006445;28;20033;-67
2022/12/30 06:01:51;;;;;;;9.30;2.38;;;;;;;;;;4995398;28;20035;-68
2022/12/30 06:04:20;;;;;;;9.82;2.17;;;;;;;;;;4993155;28;20030;-68
2022/12/30 06:06:46;;;;;;;8.05;2.40;;;;;;;;;;5006975;28;20022;-68
2022/12/30 06:09:11;;;;;;;13.63;2.40;;;;;;;;;;5012596;28;20026;-68
2022/12/30 06:11:37;;;;;;;8.15;2.35;;;;;;;;;;5000806;28;20053;-67
2022/12/30 06:14:02;;;;;;;8.15;2.10;;;;;;;;;;5007956;28;20037;-67
2022/12/30 06:16:28;;;;;;;9.38;2.20;;;;;;;;;;4995786;28;20463;-68
2022/12/30 06:18:53;;;;;;;6.90;2.30;;;;;;;;;;5005084;28;20050;-68
2022/12/30 06:21:18;;;;;;;12.05;3.30;;;;;;;;;;4992621;28;20030;-68
2022/12/30 06:23:44;;;;;;;28.98;3.80;;;;;;;;;;5001969;28;20129;-68
2022/12/30 06:26:09;;;;;;;12.10;3.15;;;;;;;;;;5012584;28;20371;-68
2022/12/30 06:28:35;;;;;;;12.30;3.47;;;;;;;;;;5005126;28;20027;-68
2022/12/30 06:31:00;;;;;;;13.43;3.47;;;;;;;;;;5009407;28;20049;-68
2022/12/30 06:33:25;;;;;;;8.32;2.67;;;;;;;;;;5012481;28;20107;-70
2022/12/30 06:35:51;;;;;;;7.38;2.72;;;;;;;;;;5008530;28;20038;-68
2022/12/30 06:38:17;;;;;;;11.15;2.42;;;;;;;;;;5000373;28;20021;-68
2022/12/30 06:40:44;;;;;;;7.43;2.47;;;;;;;;;;5007679;28;20026;-68
2022/12/30 06:43:10;;;;;;;11.65;2.83;;;;;;;;;;5007030;28;20108;-67
2022/12/30 06:45:35;;;;;;;11.32;3.40;;;;;;;;;;5000610;28;20034;-68
2022/12/30 06:48:01;;;;;;;9.77;3.00;;;;;;;;;;5011143;28;20551;-67
2022/12/30 06:50:26;;;;;;;9.85;2.25;;;;;;;;;;5015742;28;20104;-67
2022/12/30 06:52:52;;;;;;;10.10;2.50;;;;;;;;;;5012649;28;20026;-68
2022/12/30 06:55:17;;;;;;;9.30;2.22;;;;;;;;;;4995866;28;20519;-67
2022/12/30 06:57:43;;;;;;;13.82;2.80;;;;;;;;;;4996063;28;20106;-67
2022/12/30 07:00:09;;;;;;;10.25;2.40;;;;;;;;;;5006951;28;20034;-68
2022/12/30 07:02:34;;;;;;;7.68;2.22;;;;;;;;;;5015476;28;20026;-66
2022/12/30 07:05:00;;;;;;;12.95;2.38;;;;;;;;;;5015454;28;20088;-66
2022/12/30 07:07:25;;;;;;;10.43;2.10;;;;;;;;;;4996404;28;20046;-67
2022/12/30 07:09:51;;;;;;;13.05;2.10;;;;;;;;;;5011490;28;20030;-67
2022/12/30 07:12:17;;;;;;;8.55;2.13;;;;;;;;;;4999998;28;20030;-67
2022/12/30 07:14:43;;;;;;;6.80;2.40;;;;;;;;;;5006999;28;20025;-67
2022/12/30 07:17:09;;;;;;;10.45;1.95;;;;;;;;;;5000761;28;20113;-66
2022/12/30 07:19:34;;;;;;;12.70;2.20;;;;;;;;;;5015158;28;20084;-67
2022/12/30 07:22:00;;;;;;;9.32;2.83;;;;;;;;;;5014918;28;20034;-67
2022/12/30 07:24:25;;;;;;;7.60;3.22;;;;;;;;;;4998636;28;20025;-67
2022/12/30 07:26:51;;;;;;;10.15;2.17;;;;;;;;;;5008357;28;20057;-67
2022/12/30 07:29:16;;;;;;;14.55;2.50;;;;;;;;;;4986515;28;20121;-66
2022/12/30 07:31:42;;;;;;;10.20;2.47;;;;;;;;;;5001985;28;20026;-67
2022/12/30 07:34:08;;;;;;;11.95;3.50;;;;;;;;;;5014855;28;20392;-66
2022/12/30 07:36:33;;;;;;;10.70;2.60;;;;;;;;;;4997086;28;20026;-66
2022/12/30 07:38:59;;;;;;;8.65;2.30;;;;;;;;;;4995298;28;20030;-66
2022/12/30 07:41:27;;;;;;;9.40;2.50;;;;;;;;;;5014182;28;20029;-66
2022/12/30 07:43:53;;;;;;;12.30;2.35;;;;;;;;;;5009488;28;20202;-66
2022/12/30 07:46:19;;;;;;;11.80;2.88;;;;;;;;;;4993776;28;20050;-67
2022/12/30 07:48:44;;;;;;;9.50;2.50;;;;;;;;;;4995061;28;20022;-67
2022/12/30 07:51:15;;;;;;;14.75;2.45;;;;;;;;;;5007776;28;20037;-66
2022/12/30 07:53:41;;;;;;;;;;;;;;;;;;5000047;28;20057;-66
2022/12/30 07:56:10;;;;;;;11.38;2.63;;;;;;;;;;5010890;28;20371;-66
2022/12/30 07:58:35;;;;;;;11.13;2.63;;;;;;;;;;5000447;28;20025;-67
2022/12/30 08:01:11;;;;;;;9.20;2.63;;;;;;;;;;5004960;28;20035;-67
2022/12/30 08:03:38;;;;;;;11.82;3.00;;;;;;;;;;4994899;28;20038;-66
2022/12/30 08:06:05;;;;;;;12.63;2.58;;;;;;;;;;5008440;28;20021;-65
2022/12/30 08:08:31;;;;;;;11.10;3.00;;;;;;;;;;5003698;28;20384;-66
2022/12/30 08:10:57;;;;;;;17.27;2.92;;;;;;;;;;5007816;28;20032;-66
2022/12/30 08:13:23;;;;;;;12.88;2.72;;;;;;;;;;4997634;28;20409;-66
2022/12/30 08:15:49;;;;;;;10.95;2.80;;;;;;;;;;5008182;28;20114;-66
2022/12/30 08:18:14;;;;;;;8.40;2.70;;;;;;;;;;4994227;28;20448;-66
2022/12/30 08:20:40;;;;;;;10.93;2.40;;;;;;;;;;4994073;28;20026;-67
2022/12/30 08:23:06;;;;;;;11.75;2.75;;;;;;;;;;5009771;28;20058;-67
2022/12/30 08:25:31;;;;;;;11.70;2.35;;;;;;;;;;4997262;28;20069;-67
2022/12/30 08:27:56;;;;;;;10.52;2.25;;;;;;;;;;5007452;28;20084;-67
2022/12/30 08:30:22;;;;;;;6.32;1.95;;;;;;;;;;5011677;28;20101;-67
2022/12/30 08:32:47;;;;;;;8.50;2.20;;;;;;;;;;5012901;28;20034;-67
2022/12/30 08:35:13;;;;;;;9.65;2.58;;;;;;;;;;4994088;28;20026;-67
2022/12/30 08:37:40;;;;;;;12.85;2.42;;;;;;;;;;4993772;28;20122;-67
2022/12/30 08:40:06;;;;;;;9.63;2.20;;;;;;;;;;5005512;28;20104;-67
2022/12/30 08:42:37;;;;;;;8.30;2.20;;;;;;;;;;4997294;28;20058;-67
2022/12/30 08:45:07;;;;;;;8.75;2.05;;;;;;;;;;4980982;28;20038;-66
2022/12/30 08:47:34;;;;;;;7.60;2.10;;;;;;;;;;5000778;28;20045;-67
2022/12/30 08:50:00;;;;;;;4.75;2.08;;;;;;;;;;5013499;28;20075;-67
2022/12/30 08:52:27;;;;;;;8.40;1.75;;;;;;;;;;4995314;28;20026;-67
2022/12/30 08:54:52;;;;;;;9.40;2.08;;;;;;;;;;4993675;28;20026;-67
2022/12/30 08:57:18;;;;;;;8.95;2.33;;;;;;;;;;5001001;28;20033;-66
2022/12/30 08:59:43;;;;;;;7.68;2.00;;;;;;;;;;5013432;28;20037;-67
2022/12/30 09:02:11;;;;;;;8.10;1.95;;;;;;;;;;5013123;28;20391;-66
2022/12/30 09:04:37;;;;;;;8.95;1.88;;;;;;;;;;4998565;28;20029;-67
2022/12/30 09:07:02;;;;;;;9.45;2.45;;;;;;;;;;4993558;28;20026;-67
2022/12/30 09:09:28;;;;;;;8.45;2.20;;;;;;;;;;4996940;28;20022;-67
2022/12/30 09:11:53;;;;;;;5.72;2.20;;;;;;;;;;5013051;28;20033;-67
2022/12/30 09:14:19;;;;;;;5.93;1.80;;;;;;;;;;5013015;28;20179;-67
2022/12/30 09:16:45;;;;;;;10.48;2.22;;;;;;;;;;5003540;28;20033;-67
2022/12/30 09:19:11;;;;;;;12.43;2.20;;;;;;;;;;4993287;28;20476;-67
2022/12/30 09:21:36;;;;;;;7.82;2.38;;;;;;;;;;4992422;28;20030;-67
2022/12/30 09:24:02;;;;;;;7.15;2.25;;;;;;;;;;5008601;28;20022;-65
2022/12/30 09:26:28;;;;;;;12.02;2.20;;;;;;;;;;4992762;28;20034;-66
2022/12/30 09:28:55;;;;;;;4.55;1.75;;;;;;;;;;5003956;28;20113;-67
2022/12/30 09:31:21;;;;;;;6.60;1.95;;;;;;;;;;5012431;28;20157;-66
2022/12/30 09:33:46;;;;;;;6.60;1.88;;;;;;;;;;5004174;28;20034;-66
2022/12/30 09:36:13;;;;;;;7.57;1.90;;;;;;;;;;4992084;28;20033;-65
2022/12/30 09:38:39;;;;;;;8.65;2.30;;;;;;;;;;4993079;28;20031;-65
2022/12/30 09:41:16;;;;;;;13.43;2.20;;;;;;;;;;5008989;28;20041;-66
2022/12/30 09:44:08;;;;;;;13.77;3.28;;;;;;;;;;5012195;28;20052;-66
2022/12/30 09:46:46;;;;;;;6.13;2.65;;;;;;;;;;4993325;28;20069;-67
2022/12/30 09:49:27;;;;;;;8.52;2.50;;;;;;;;;;4995737;28;20034;-65
2022/12/30 09:51:58;;;;;;;9.65;2.15;;;;;;;;;;5012576;28;20029;-67
2022/12/30 09:54:27;;;;;;;10.38;2.08;;;;;;;;;;4997145;28;20089;-66
2022/12/30 09:56:57;;;;;;;8.95;2.38;;;;;;;;;;5002463;28;20045;-68
2022/12/30 09:59:32;;;;;;;10.05;2.28;;;;;;;;;;4992129;28;20475;-67
2022/12/30 10:02:19;;;;;;;10.30;2.50;;;;;;;;;;4987193;28;20033;-67
2022/12/30 10:04:45;;;;;;;8.20;2.50;;;;;;;;;;4990502;28;20018;-67
2022/12/30 10:07:49;;;;;;;8.20;2.13;;;;;;;;;;4988915;28;20909;-65
2022/12/30 10:10:41;;;;;;;7.35;2.63;;;;;;;;;;4994197;28;20056;-67
2022/12/30 10:13:06;;;;;;;7.25;2.03;;;;;;;;;;4988208;28;20060;-68
2022/12/30 10:15:37;;;;;;;8.77;2.08;;;;;;;;;;5000054;28;20026;-66
2022/12/30 10:18:20;;;;;;;10.65;2.53;;;;;;;;;;4996866;28;20045;-67
2022/12/30 10:21:07;;;;;;;8.73;2.35;;;;;;;;;;4994904;28;20362;-67
2022/12/30 10:23:50;;;;;;;8.82;2.50;;;;;;;;;;4995622;28;20053;-67
2022/12/30 10:26:24;;;;;;;11.95;2.85;;;;;;;;;;4996215;28;20030;-68
2022/12/30 10:28:49;;;;;;;9.65;2.90;;;;;;;;;;5001897;28;20037;-66
2022/12/30 10:31:21;;;;;;;11.18;2.60;;;;;;;;;;4997898;28;20030;-65
2022/12/30 10:33:54;;;;;;;9.27;2.42;;;;;;;;;;4996293;28;20018;-67
2022/12/30 10:36:32;;;;;;;12.02;2.05;;;;;;;;;;4996169;28;20057;-67
2022/12/30 10:39:42;;;;;;;10.55;2.30;;;;;;;;;;4996251;28;20024;-67
2022/12/30 10:42:32;;;;;;;11.68;2.47;;;;;;;;;;4996034;28;20051;-66
2022/12/30 10:45:22;;;;;;;10.65;2.05;;;;;;;;;;4996250;28;20092;-68
2022/12/30 10:48:19;;;;;;;7.75;2.22;;;;;;;;;;4996046;28;20026;-68
2022/12/30 10:50:48;;;;;;;9.07;3.10;;;;;;;;;;4995501;28;20396;-67
2022/12/30 10:53:19;;;;;;;8.77;2.45;;;;;;;;;;4996188;28;20042;-68
2022/12/30 10:55:52;;;;;;;8.93;2.10;;;;;;;;;;4994622;28;20383;-68
2022/12/30 10:58:38;;;;;;;8.45;2.28;;;;;;;;;;4996061;28;20358;-68
2022/12/30 11:01:04;;;;;;;11.15;3.40;;;;;;;;;;4996009;28;20026;-67
2022/12/30 11:03:29;;;;;;;6.63;2.25;;;;;;;;;;4996055;28;20037;-68
2022/12/30 11:05:55;;;;;;;6.90;1.75;;;;;;;;;;4994753;28;20495;-67
2022/12/30 11:08:30;;;;;;;6.18;2.00;;;;;;;;;;4994437;28;20117;-68
2022/12/30 11:11:01;;;;;;;10.15;2.40;;;;;;;;;;4995975;28;20105;-68
2022/12/30 11:16:12;;;;;;;8.18;2.15;;;;;;;;;;4995767;28;20021;-68
2022/12/30 11:18:38;;;;;;;13.13;2.47;;;;;;;;;;4995438;28;20085;-66
2022/12/30 11:21:06;;;;;;;7.95;2.33;;;;;;;;;;4994803;28;20022;-68
2022/12/30 11:23:36;;;;;;;12.48;2.15;;;;;;;;;;4995395;28;20023;-67
2022/12/30 11:26:04;;;;;;;;;;;;;;;;;;4995699;28;20388;-67
2022/12/30 11:28:43;;;;;;;11.18;2.00;;;;;;;;;;4998062;28;19925;-68
2022/12/30 11:31:12;;;;;;;6.47;1.80;;;;;;;;;;5014990;28;20030;-68
2022/12/30 11:33:44;;;;;;;9.38;2.05;;;;;;;;;;5014684;28;20396;-68
2022/12/30 11:36:19;;;;;;;10.20;2.22;;;;;;;;;;5014846;28;20506;-67
2022/12/30 11:38:50;;;;;;;6.57;1.67;;;;;;;;;;5014768;28;20542;-68
2022/12/30 11:41:18;;;;;;;10.52;1.90;;;;;;;;;;5014768;28;20427;-67
2022/12/30 11:43:45;;;;;;;7.55;1.90;;;;;;;;;;5014590;28;20379;-67
2022/12/30 11:46:13;;;;;;;10.40;1.83;;;;;;;;;;5014755;28;20053;-67
2022/12/30 11:48:52;;;;;;;7.90;2.10;;;;;;;;;;5014430;28;20017;-67
2022/12/30 11:51:21;;;;;;;7.03;1.75;;;;;;;;;;5014616;28;20037;-66
2022/12/30 11:53:47;;;;;;;8.90;1.83;;;;;;;;;;5014044;28;20026;-67
2022/12/30 11:56:20;;;;;;;5.28;1.50;;;;;;;;;;5014519;28;20478;-67
2022/12/30 11:58:46;;;;;;;8.85;2.20;;;;;;;;;;5014362;28;20026;-67
2022/12/30 12:01:12;;;;;;;3.95;1.60;;;;;;;;;;5014153;28;20164;-68
2022/12/30 12:03:53;;;;;;;90.05;7.60;;;;;;;;;;5014162;28;20033;-69
2022/12/30 12:06:19;;;;;;;8.13;1.92;;;;;;;;;;5014306;28;20403;-70
2022/12/30 12:08:50;;;;;;;8.02;1.75;;;;;;;;;;5014369;28;20025;-66
2022/12/30 12:11:19;;;;;;;6.10;1.92;;;;;;;;;;5014352;28;20037;-69
2022/12/30 12:14:23;;;;;;;5.32;1.50;;;;;;;;;;5014021;28;20028;-71
2022/12/30 12:16:58;;;;;;;9.82;1.77;;;;;;;;;;5013551;28;20042;-67
2022/12/30 12:19:37;;;;;;;20.00;3.53;;;;;;;;;;5013962;28;20108;-70
2022/12/30 12:22:13;;;;;;;9.23;2.38;;;;;;;;;;5014006;28;20026;-68
2022/12/30 12:24:44;;;;;;;6.43;1.77;;;;;;;;;;5013954;28;20026;-66
2022/12/30 12:27:09;;;;;;;14.55;2.53;;;;;;;;;;5014011;28;20061;-72
2022/12/30 12:29:35;;;;;;;7.63;2.15;;;;;;;;;;5013582;28;20026;-72
2022/12/30 12:32:22;;;;;;;4.72;2.22;;;;;;;;;;5012751;28;20032;-71
2022/12/30 12:35:24;;;;;;;11.40;2.10;;;;;;;;;;5012599;28;20103;-72
2022/12/30 12:38:08;;;;;;;11.73;2.63;;;;;;;;;;5013633;28;20026;-67
2022/12/30 12:41:12;;;;;;;7.85;2.03;;;;;;;;;;5013712;28;20061;-66
2022/12/30 12:43:40;;;;;;;8.52;1.90;;;;;;;;;;5012976;28;20403;-67
2022/12/30 12:46:15;;;;;;;4.38;1.50;;;;;;;;;;5013459;28;20471;-68
2022/12/30 12:48:57;;;;;;;12.95;2.28;;;;;;;;;;5013445;28;20026;-67
2022/12/30 12:52:05;;;;;;;5.00;1.48;;;;;;;;;;5013406;28;20386;-68
2022/12/30 12:54:49;;;;;;;10.30;2.80;;;;;;;;;;5008461;28;20038;-70
2022/12/30 12:57:21;;;;;;;8.15;1.83;;;;;;;;;;5013326;28;20033;-66
2022/12/30 13:00:07;;;;;;;7.45;1.63;;;;;;;;;;5013318;28;20032;-66
2022/12/30 13:02:56;;;;;;;10.75;1.85;;;;;;;;;;5001174;28;20056;-65
2022/12/30 13:05:29;;;;;;;10.70;1.60;;;;;;;;;;4993514;28;20112;-66
2022/12/30 13:08:36;;;;;;;9.60;1.83;;;;;;;;;;4993280;28;20661;-66
2022/12/30 13:11:37;;;;;;;9.77;1.85;;;;;;;;;;4952518;29;20207;-70
2022/12/30 13:14:21;;;;;;;6.72;1.83;;;;;;;;;;4938006;29;20253;-68
2022/12/30 13:16:50;;;;;;;12.57;2.63;;;;;;;;;;4952377;29;20089;-73
2022/12/30 13:19:20;;;;;;;9.20;2.10;;;;;;;;;;4952506;29;20082;-72
2022/12/30 13:21:55;;;;;;;8.80;2.53;;;;;;;;;;4952512;29;20050;-70
2022/12/30 13:24:29;;;;;;;8.80;2.38;;;;;;;;;;4952615;29;20039;-68
2022/12/30 13:26:55;;;;;;;5.30;2.20;;;;;;;;;;4952738;29;20031;-68
2022/12/30 13:29:21;;;;;;;6.78;1.90;;;;;;;;;;4961554;28;20047;-67
2022/12/30 13:32:02;;;;;;;8.25;1.83;;;;;;;;;;4971634;28;20042;-67
2022/12/30 13:34:39;;;;;;;8.85;1.85;;;;;;;;;;4971662;28;20388;-75
2022/12/30 13:37:23;;;;;;;11.82;2.30;;;;;;;;;;4971761;28;20026;-69
2022/12/30 13:39:57;;;;;;;8.85;2.10;;;;;;;;;;4955155;28;20634;-70
2022/12/30 13:42:29;;;;;;;7.88;2.00;;;;;;;;;;4971465;28;20054;-68
2022/12/30 13:44:55;;;;;;;16.95;2.47;;;;;;;;;;4977531;28;20085;-68
2022/12/30 13:47:40;;;;;;;8.60;2.08;;;;;;;;;;4995000;28;20119;-71
2022/12/30 13:50:19;;;;;;;7.15;2.10;;;;;;;;;;5019358;28;20026;-69
2022/12/30 13:52:48;;;;;;;6.40;1.80;;;;;;;;;;5019515;28;20037;-70
2022/12/30 13:55:23;;;;;;;9.65;2.40;;;;;;;;;;5019038;28;20057;-69
2022/12/30 13:58:16;;;;;;;8.05;2.08;;;;;;;;;;5019106;28;20022;-69
2022/12/30 14:00:42;;;;;;;7.40;2.20;;;;;;;;;;5018801;28;20359;-67
2022/12/30 14:03:16;;;;;;;13.32;3.17;;;;;;;;;;5019035;28;20033;-68
2022/12/30 14:05:41;;;;;;;7.45;1.65;;;;;;;;;;5019230;28;20033;-68
2022/12/30 14:08:24;;;;;;;9.85;2.15;;;;;;;;;;5019092;28;20026;-68
2022/12/30 14:11:06;;;;;;;4.70;1.85;;;;;;;;;;5019173;28;20037;-67
2022/12/30 14:13:35;;;;;;;8.98;2.22;;;;;;;;;;5018806;28;20426;-67
2022/12/30 14:16:05;;;;;;;6.10;1.77;;;;;;;;;;5018942;28;20021;-67
2022/12/30 14:18:43;;;;;;;5.13;1.70;;;;;;;;;;5019091;28;20388;-67
2022/12/30 14:21:14;;;;;;;9.88;1.88;;;;;;;;;;5018944;28;20451;-67
2022/12/30 14:23:47;;;;;;;5.10;1.60;;;;;;;;;;5019110;28;20021;-67
2022/12/30 14:26:37;;;;;;;2.90;1.42;;;;;;;;;;5019063;28;20014;-68
2022/12/30 14:29:17;;;;;;;9.70;1.70;;;;;;;;;;5003996;28;20042;-68
2022/12/30 14:31:49;;;;;;;5.85;2.30;;;;;;;;;;4997513;28;20081;-66
2022/12/30 14:34:29;;;;;;;13.35;2.33;;;;;;;;;;4994405;28;20042;-67
2022/12/30 14:37:01;;;;;;;8.68;1.90;;;;;;;;;;4996458;28;20034;-67
2022/12/30 14:39:27;;;;;;;8.50;3.42;;;;;;;;;;4998759;28;20026;-67
2022/12/30 14:41:54;;;;;;;5.63;1.92;;;;;;;;;;4998199;28;20082;-70
2022/12/30 14:44:25;;;;;;;5.90;1.83;;;;;;;;;;4998742;28;20122;-71
2022/12/30 14:46:52;;;;;;;15.27;1.58;;;;;;;;;;4997679;28;20061;-70
2022/12/30 14:49:56;;;;;;;8.52;2.58;;;;;;;;;;4998865;28;20369;-72
2022/12/30 14:52:25;;;;;;;8.27;2.33;;;;;;;;;;4998689;28;20061;-70
2022/12/30 14:54:56;;;;;;;9.75;2.28;;;;;;;;;;4997137;28;20026;-72
2022/12/30 14:57:30;;;;;;;8.88;2.60;;;;;;;;;;4993925;28;20026;-71
2022/12/30 15:00:08;;;;;;;8.20;2.38;;;;;;;;;;4995553;28;20022;-71
2022/12/30 15:02:45;;;;;;;15.05;3.38;;;;;;;;;;4994656;28;20069;-68
2022/12/30 15:05:23;;;;;;;12.98;3.03;;;;;;;;;;4995125;28;20081;-71
2022/12/30 15:07:59;;;;;;;11.10;2.90;;;;;;;;;;4995087;28;20032;-69
2022/12/30 15:11:02;;;;;;;8.55;2.58;;;;;;;;;;4995226;28;20092;-76
2022/12/30 15:13:55;;;;;;;6.97;3.05;;;;;;;;;;4995140;28;20034;-71
2022/12/30 15:16:24;;;;;;;9.00;2.30;;;;;;;;;;4993022;28;20538;-72
2022/12/30 15:18:57;;;;;;;12.18;2.92;;;;;;;;;;4995139;28;20125;-69
2022/12/30 15:21:28;;;;;;;8.90;2.67;;;;;;;;;;4995130;28;20039;-70
2022/12/30 15:23:59;;;;;;;10.90;2.30;;;;;;;;;;4994964;28;20027;-69
2022/12/30 15:26:29;;;;;;;8.48;2.50;;;;;;;;;;4994760;28;20112;-69
2022/12/30 15:28:55;;;;;;;10.15;2.60;;;;;;;;;;5001086;28;20125;-69
2022/12/30 15:31:25;;;;;;;9.77;2.78;;;;;;;;;;5014085;28;20486;-70
2022/12/30 15:34:02;;;;;;;15.13;3.17;;;;;;;;;;5015231;28;20042;-67
2022/12/30 15:36:29;;;;;;;11.85;3.50;;;;;;;;;;5014376;28;20415;-78
2022/12/30 15:38:58;;;;;;;8.82;3.05;;;;;;;;;;5014526;28;20088;-70
2022/12/30 15:41:28;;;;;;;12.90;3.45;;;;;;;;;;5014319;28;20045;-73
2022/12/30 15:43:57;;;;;;;13.15;4.10;;;;;;;;;;5012251;28;20541;-70
2022/12/30 15:46:25;;;;;;;14.77;3.63;;;;;;;;;;5013986;28;20079;-70
2022/12/30 15:49:10;;;;;;;18.75;8.05;;;;;;;;;;5012667;28;20034;-70
2022/12/30 15:51:37;;;;;;;14.07;3.83;;;;;;;;;;5014120;28;20038;-69
2022/12/30 15:54:05;;;;;;;10.82;2.97;;;;;;;;;;5013936;28;20017;-67
2022/12/30 15:56:32;;;;;;;10.35;2.70;;;;;;;;;;5013558;28;20026;-78
2022/12/30 15:59:04;;;;;;;9.68;3.25;;;;;;;;;;5013316;28;20017;-68